sensor_id;sensor_type;location;lat;lon;timestamp;pressure;altitude;pressure_sealevel;temperature;humidity
37068;BME280;22982;42.848;25.468;2023-07-13T00:02:42;96364.47;;;18.94;100.00
37068;BME280;22982;42.848;25.468;2023-07-13T00:13:05;96352.03;;;18.85;100.00
37068;BME280;22982;42.848;25.468;2023-07-13T00:18:08;96364.88;;;19.00;100.00
37068;BME280;22982;42.848;25.468;2023-07-13T00:23:10;96372.59;;;19.03;100.00
37068;BME280;22982;42.848;25.468;2023-07-13T00:28:12;96362.22;;;18.80;100.00
37068;BME280;22982;42.848;25.468;2023-07-13T00:33:15;96349.13;;;18.88;100.00
37068;BME280;22982;42.848;25.468;2023-07-13T00:38:19;96346.16;;;18.91;100.00
37068;BME280;22982;42.848;25.468;2023-07-13T00:43:25;96358.84;;;19.17;100.00
37068;BME280;22982;42.848;25.468;2023-07-13T00:48:31;96353.84;;;18.94;100.00
37068;BME280;22982;42.848;25.468;2023-07-13T00:53:34;96362.81;;;18.93;100.00
37068;BME280;22982;42.848;25.468;2023-07-13T00:58:37;96363.50;;;18.56;100.00
37068;BME280;22982;42.848;25.468;2023-07-13T01:03:39;96350.63;;;18.62;100.00
37068;BME280;22982;42.848;25.468;2023-07-13T01:08:43;96358.88;;;18.29;100.00
37068;BME280;22982;42.848;25.468;2023-07-13T01:13:45;96353.13;;;18.24;100.00
37068;BME280;22982;42.848;25.468;2023-07-13T01:18:49;96360.53;;;18.21;100.00
37068;BME280;22982;42.848;25.468;2023-07-13T01:23:53;96360.78;;;18.17;100.00
37068;BME280;22982;42.848;25.468;2023-07-13T01:28:56;96353.66;;;17.98;100.00
37068;BME280;22982;42.848;25.468;2023-07-13T01:33:58;96361.06;;;17.95;100.00
37068;BME280;22982;42.848;25.468;2023-07-13T01:39:02;96364.41;;;17.97;100.00
37068;BME280;22982;42.848;25.468;2023-07-13T01:44:05;96361.78;;;18.16;100.00
37068;BME280;22982;42.848;25.468;2023-07-13T01:49:08;96360.66;;;18.19;100.00
37068;BME280;22982;42.848;25.468;2023-07-13T01:54:10;96356.06;;;18.11;100.00
37068;BME280;22982;42.848;25.468;2023-07-13T01:59:13;96342.22;;;18.17;100.00
37068;BME280;22982;42.848;25.468;2023-07-13T02:04:15;96355.53;;;18.27;100.00
37068;BME280;22982;42.848;25.468;2023-07-13T02:09:18;96351.75;;;18.40;100.00
37068;BME280;22982;42.848;25.468;2023-07-13T02:14:20;96342.97;;;18.49;100.00
37068;BME280;22982;42.848;25.468;2023-07-13T02:19:22;96340.28;;;18.39;100.00
37068;BME280;22982;42.848;25.468;2023-07-13T02:24:25;96358.03;;;18.29;100.00
37068;BME280;22982;42.848;25.468;2023-07-13T02:29:27;96364.56;;;18.25;100.00
37068;BME280;22982;42.848;25.468;2023-07-13T02:34:30;96357.69;;;17.93;100.00
37068;BME280;22982;42.848;25.468;2023-07-13T02:39:34;96366.19;;;17.87;100.00
37068;BME280;22982;42.848;25.468;2023-07-13T02:44:37;96362.88;;;17.94;100.00
37068;BME280;22982;42.848;25.468;2023-07-13T02:49:39;96350.84;;;17.90;100.00
37068;BME280;22982;42.848;25.468;2023-07-13T02:54:42;96363.53;;;17.87;100.00
37068;BME280;22982;42.848;25.468;2023-07-13T02:59:44;96353.66;;;17.98;100.00
37068;BME280;22982;42.848;25.468;2023-07-13T03:04:46;96354.41;;;18.10;100.00
37068;BME280;22982;42.848;25.468;2023-07-13T03:09:54;96365.31;;;18.36;100.00
37068;BME280;22982;42.848;25.468;2023-07-13T03:14:57;96367.22;;;18.25;100.00
37068;BME280;22982;42.848;25.468;2023-07-13T03:20:01;96367.53;;;18.31;100.00
37068;BME280;22982;42.848;25.468;2023-07-13T03:25:04;96364.19;;;18.49;100.00
37068;BME280;22982;42.848;25.468;2023-07-13T03:30:07;96367.13;;;18.46;100.00
37068;BME280;22982;42.848;25.468;2023-07-13T03:35:10;96368.13;;;18.45;100.00
37068;BME280;22982;42.848;25.468;2023-07-13T03:40:13;96357.91;;;18.40;100.00
37068;BME280;22982;42.848;25.468;2023-07-13T03:45:19;96361.69;;;18.67;100.00
37068;BME280;22982;42.848;25.468;2023-07-13T03:50:22;96357.78;;;18.61;100.00
37068;BME280;22982;42.848;25.468;2023-07-13T03:55:24;96371.88;;;18.71;100.00
37068;BME280;22982;42.848;25.468;2023-07-13T04:00:28;96354.97;;;18.72;100.00
37068;BME280;22982;42.848;25.468;2023-07-13T04:05:31;96364.34;;;18.96;100.00
37068;BME280;22982;42.848;25.468;2023-07-13T04:10:34;96361.25;;;19.01;100.00
37068;BME280;22982;42.848;25.468;2023-07-13T04:15:38;96354.63;;;19.24;100.00
37068;BME280;22982;42.848;25.468;2023-07-13T04:20:42;96359.06;;;19.34;100.00
37068;BME280;22982;42.848;25.468;2023-07-13T04:25:45;96369.34;;;19.56;100.00
37068;BME280;22982;42.848;25.468;2023-07-13T04:30:49;96366.00;;;19.54;100.00
37068;BME280;22982;42.848;25.468;2023-07-13T04:35:54;96363.09;;;19.85;100.00
37068;BME280;22982;42.848;25.468;2023-07-13T04:41:00;96361.66;;;19.91;100.00
37068;BME280;22982;42.848;25.468;2023-07-13T04:46:11;96358.13;;;20.18;100.00
37068;BME280;22982;42.848;25.468;2023-07-13T04:51:15;96362.13;;;20.50;100.00
37068;BME280;22982;42.848;25.468;2023-07-13T04:56:17;96358.47;;;21.39;100.00
37068;BME280;22982;42.848;25.468;2023-07-13T05:01:21;96350.19;;;22.19;100.00
37068;BME280;22982;42.848;25.468;2023-07-13T05:06:24;96345.09;;;23.00;100.00
37068;BME280;22982;42.848;25.468;2023-07-13T05:11:27;96334.47;;;23.64;100.00
37068;BME280;22982;42.848;25.468;2023-07-13T05:16:29;96317.56;;;24.11;100.00
37068;BME280;22982;42.848;25.468;2023-07-13T05:21:33;96336.38;;;24.80;100.00
37068;BME280;22982;42.848;25.468;2023-07-13T05:26:36;96333.00;;;25.25;99.48
37068;BME280;22982;42.848;25.468;2023-07-13T05:31:38;96339.78;;;25.80;95.22
37068;BME280;22982;42.848;25.468;2023-07-13T05:36:42;96349.31;;;26.34;93.63
37068;BME280;22982;42.848;25.468;2023-07-13T05:41:45;96342.84;;;26.86;92.90
37068;BME280;22982;42.848;25.468;2023-07-13T05:46:47;96341.66;;;27.17;90.08
37068;BME280;22982;42.848;25.468;2023-07-13T05:51:50;96347.94;;;27.81;89.62
37068;BME280;22982;42.848;25.468;2023-07-13T05:56:52;96347.31;;;28.27;84.06
37068;BME280;22982;42.848;25.468;2023-07-13T06:01:54;96333.78;;;28.75;80.07
37068;BME280;22982;42.848;25.468;2023-07-13T06:06:57;96331.31;;;29.40;76.60
37068;BME280;22982;42.848;25.468;2023-07-13T06:12:00;96331.03;;;29.82;75.82
37068;BME280;22982;42.848;25.468;2023-07-13T06:17:02;96333.38;;;30.17;73.23
37068;BME280;22982;42.848;25.468;2023-07-13T06:22:05;96318.03;;;30.56;71.09
37068;BME280;22982;42.848;25.468;2023-07-13T06:27:07;96330.38;;;31.09;70.56
37068;BME280;22982;42.848;25.468;2023-07-13T06:32:09;96317.97;;;31.45;68.25
37068;BME280;22982;42.848;25.468;2023-07-13T06:37:12;96324.81;;;31.73;69.77
37068;BME280;22982;42.848;25.468;2023-07-13T06:42:16;96307.63;;;32.34;67.26
37068;BME280;22982;42.848;25.468;2023-07-13T06:47:19;96317.31;;;34.78;55.48
37068;BME280;22982;42.848;25.468;2023-07-13T06:52:21;96294.63;;;37.70;46.62
37068;BME280;22982;42.848;25.468;2023-07-13T06:57:23;96273.22;;;40.10;40.61
37068;BME280;22982;42.848;25.468;2023-07-13T07:02:26;96296.19;;;41.48;38.66
37068;BME280;22982;42.848;25.468;2023-07-13T07:07:28;96289.72;;;42.35;37.69
37068;BME280;22982;42.848;25.468;2023-07-13T07:12:31;96291.72;;;42.11;37.83
37068;BME280;22982;42.848;25.468;2023-07-13T07:17:33;96288.00;;;43.15;36.33
37068;BME280;22982;42.848;25.468;2023-07-13T07:22:35;96290.75;;;41.96;35.45
37068;BME280;22982;42.848;25.468;2023-07-13T07:27:38;96277.53;;;40.71;35.29
37068;BME280;22982;42.848;25.468;2023-07-13T07:32:43;96271.25;;;40.15;34.58
37068;BME280;22982;42.848;25.468;2023-07-13T07:37:48;96290.66;;;39.38;35.06
37068;BME280;22982;42.848;25.468;2023-07-13T07:42:52;96278.06;;;39.01;35.01
37068;BME280;22982;42.848;25.468;2023-07-13T07:47:55;96272.00;;;38.89;36.01
37068;BME280;22982;42.848;25.468;2023-07-13T07:53:00;96281.38;;;39.03;33.27
37068;BME280;22982;42.848;25.468;2023-07-13T07:58:05;96280.25;;;39.15;36.24
37068;BME280;22982;42.848;25.468;2023-07-13T08:03:28;96282.41;;;39.43;34.62
37068;BME280;22982;42.848;25.468;2023-07-13T08:08:50;96276.94;;;39.28;34.58
37068;BME280;22982;42.848;25.468;2023-07-13T08:13:52;96284.59;;;38.90;35.20
37068;BME280;22982;42.848;25.468;2023-07-13T08:18:56;96271.22;;;39.19;31.35
37068;BME280;22982;42.848;25.468;2023-07-13T08:23:59;96281.03;;;39.61;30.52
37068;BME280;22982;42.848;25.468;2023-07-13T08:29:01;96275.72;;;40.01;33.75
37068;BME280;22982;42.848;25.468;2023-07-13T08:34:04;96296.13;;;39.38;33.73
37068;BME280;22982;42.848;25.468;2023-07-13T08:39:07;96281.25;;;39.91;32.23
37068;BME280;22982;42.848;25.468;2023-07-13T08:44:56;96263.13;;;39.90;34.06
37068;BME280;22982;42.848;25.468;2023-07-13T08:49:50;96269.44;;;39.85;34.86
37068;BME280;22982;42.848;25.468;2023-07-13T08:54:54;96281.84;;;39.67;34.47
37068;BME280;22982;42.848;25.468;2023-07-13T08:59:57;96283.97;;;39.91;32.42
37068;BME280;22982;42.848;25.468;2023-07-13T09:05:12;96267.09;;;40.18;33.16
37068;BME280;22982;42.848;25.468;2023-07-13T09:10:46;96259.16;;;40.16;28.48
37068;BME280;22982;42.848;25.468;2023-07-13T09:15:50;96253.22;;;39.99;32.34
37068;BME280;22982;42.848;25.468;2023-07-13T09:36:47;96232.34;;;40.53;28.64
37068;BME280;22982;42.848;25.468;2023-07-13T09:47:18;96239.97;;;40.61;31.01
37068;BME280;22982;42.848;25.468;2023-07-13T09:52:21;96241.75;;;40.76;28.61
37068;BME280;22982;42.848;25.468;2023-07-13T09:57:26;96233.44;;;40.91;29.66
37068;BME280;22982;42.848;25.468;2023-07-13T10:02:58;96226.34;;;41.14;27.89
37068;BME280;22982;42.848;25.468;2023-07-13T10:08:01;96205.19;;;41.39;28.72
37068;BME280;22982;42.848;25.468;2023-07-13T10:13:04;96210.28;;;40.98;34.83
37068;BME280;22982;42.848;25.468;2023-07-13T10:18:08;96221.28;;;41.27;34.94
37068;BME280;22982;42.848;25.468;2023-07-13T10:23:21;96208.31;;;41.57;28.02
37068;BME280;22982;42.848;25.468;2023-07-13T10:28:36;96202.22;;;41.36;27.03
37068;BME280;22982;42.848;25.468;2023-07-13T10:33:39;96218.75;;;41.84;27.65
37068;BME280;22982;42.848;25.468;2023-07-13T10:38:42;96217.31;;;41.62;29.94
37068;BME280;22982;42.848;25.468;2023-07-13T10:43:53;96214.44;;;41.78;28.23
37068;BME280;22982;42.848;25.468;2023-07-13T10:49:00;96195.22;;;41.92;27.16
37068;BME280;22982;42.848;25.468;2023-07-13T10:54:21;96200.78;;;42.30;26.39
37068;BME280;22982;42.848;25.468;2023-07-13T10:59:27;96178.25;;;41.65;28.44
37068;BME280;22982;42.848;25.468;2023-07-13T11:04:52;96206.91;;;42.26;27.75
37068;BME280;22982;42.848;25.468;2023-07-13T11:10:02;96219.28;;;42.67;27.39
37068;BME280;22982;42.848;25.468;2023-07-13T11:15:11;96226.06;;;42.56;28.28
37068;BME280;22982;42.848;25.468;2023-07-13T11:35:31;96207.31;;;42.91;27.19
37068;BME280;22982;42.848;25.468;2023-07-13T11:40:34;96192.22;;;43.35;26.67
37068;BME280;22982;42.848;25.468;2023-07-13T11:45:39;96202.41;;;43.20;25.34
37068;BME280;22982;42.848;25.468;2023-07-13T11:50:58;96182.69;;;43.96;25.40
37068;BME280;22982;42.848;25.468;2023-07-13T11:56:02;96187.09;;;45.16;24.11
37068;BME280;22982;42.848;25.468;2023-07-13T12:01:18;96192.69;;;46.13;22.64
37068;BME280;22982;42.848;25.468;2023-07-13T12:06:33;96176.56;;;46.24;22.63
37068;BME280;22982;42.848;25.468;2023-07-13T12:11:40;96175.28;;;45.01;23.32
37068;BME280;22982;42.848;25.468;2023-07-13T12:16:46;96184.88;;;43.11;26.64
37068;BME280;22982;42.848;25.468;2023-07-13T12:21:49;96175.97;;;41.92;27.38
37068;BME280;22982;42.848;25.468;2023-07-13T12:27:01;96180.31;;;40.62;29.67
37068;BME280;22982;42.848;25.468;2023-07-13T12:32:08;96164.53;;;39.18;31.37
37068;BME280;22982;42.848;25.468;2023-07-13T12:37:12;96154.16;;;38.84;30.93
37068;BME280;22982;42.848;25.468;2023-07-13T12:42:31;96153.56;;;38.10;33.52
37068;BME280;22982;42.848;25.468;2023-07-13T12:47:41;96144.22;;;38.06;31.30
37068;BME280;22982;42.848;25.468;2023-07-13T12:52:50;96118.34;;;36.97;33.52
37068;BME280;22982;42.848;25.468;2023-07-13T12:57:57;96114.75;;;36.92;33.39
37068;BME280;22982;42.848;25.468;2023-07-13T13:03:16;96122.59;;;37.21;34.15
37068;BME280;22982;42.848;25.468;2023-07-13T13:08:28;96118.97;;;37.73;32.53
37068;BME280;22982;42.848;25.468;2023-07-13T13:13:31;96083.19;;;37.16;37.64
37068;BME280;22982;42.848;25.468;2023-07-13T13:18:33;96098.31;;;36.87;34.47
37068;BME280;22982;42.848;25.468;2023-07-13T13:23:35;96111.19;;;36.86;34.22
37068;BME280;22982;42.848;25.468;2023-07-13T13:28:38;96109.03;;;36.98;34.57
37068;BME280;22982;42.848;25.468;2023-07-13T13:33:42;96095.13;;;37.05;35.34
37068;BME280;22982;42.848;25.468;2023-07-13T13:38:47;96099.25;;;37.03;35.02
37068;BME280;22982;42.848;25.468;2023-07-13T13:43:50;96083.47;;;37.20;34.98
37068;BME280;22982;42.848;25.468;2023-07-13T13:48:53;96087.88;;;37.21;36.39
37068;BME280;22982;42.848;25.468;2023-07-13T13:53:56;96073.81;;;37.07;35.63
37068;BME280;22982;42.848;25.468;2023-07-13T13:58:59;96075.56;;;37.24;35.57
37068;BME280;22982;42.848;25.468;2023-07-13T14:20:11;96082.72;;;37.30;39.56
37068;BME280;22982;42.848;25.468;2023-07-13T14:25:16;96091.06;;;37.13;40.01
37068;BME280;22982;42.848;25.468;2023-07-13T14:30:20;96081.22;;;37.07;40.36
37068;BME280;22982;42.848;25.468;2023-07-13T14:35:24;96081.88;;;36.76;41.81
37068;BME280;22982;42.848;25.468;2023-07-13T14:40:29;96065.81;;;36.48;43.82
37068;BME280;22982;42.848;25.468;2023-07-13T14:45:32;96074.94;;;36.26;43.59
37068;BME280;22982;42.848;25.468;2023-07-13T14:50:36;96090.59;;;36.09;45.20
37068;BME280;22982;42.848;25.468;2023-07-13T14:55:39;96084.59;;;36.07;44.82
37068;BME280;22982;42.848;25.468;2023-07-13T15:00:45;96088.59;;;35.99;44.82
37068;BME280;22982;42.848;25.468;2023-07-13T15:05:49;96100.19;;;35.84;47.21
37068;BME280;22982;42.848;25.468;2023-07-13T15:10:52;96078.03;;;35.53;52.03
37068;BME280;22982;42.848;25.468;2023-07-13T15:31:40;96099.50;;;33.70;66.14
37068;BME280;22982;42.848;25.468;2023-07-13T15:36:43;96074.59;;;33.09;70.25
37068;BME280;22982;42.848;25.468;2023-07-13T15:41:46;96093.41;;;32.87;73.52
37068;BME280;22982;42.848;25.468;2023-07-13T15:46:49;96067.81;;;32.71;74.17
37068;BME280;22982;42.848;25.468;2023-07-13T15:51:52;96075.22;;;32.16;82.80
37068;BME280;22982;42.848;25.468;2023-07-13T15:56:55;96070.81;;;32.03;80.60
37068;BME280;22982;42.848;25.468;2023-07-13T16:01:58;96072.97;;;31.83;78.25
37068;BME280;22982;42.848;25.468;2023-07-13T16:07:00;96089.22;;;31.71;82.07
37068;BME280;22982;42.848;25.468;2023-07-13T16:12:12;96088.38;;;31.71;90.06
37068;BME280;22982;42.848;25.468;2023-07-13T16:17:15;96108.06;;;31.66;92.00
37068;BME280;22982;42.848;25.468;2023-07-13T16:22:19;96099.78;;;31.61;90.71
37068;BME280;22982;42.848;25.468;2023-07-13T16:27:23;96091.16;;;31.52;89.89
37068;BME280;22982;42.848;25.468;2023-07-13T16:32:26;96091.69;;;31.05;92.80
37068;BME280;22982;42.848;25.468;2023-07-13T16:37:30;96086.47;;;30.92;95.77
37068;BME280;22982;42.848;25.468;2023-07-13T16:42:33;96094.81;;;30.65;100.00
37068;BME280;22982;42.848;25.468;2023-07-13T16:47:35;96064.13;;;30.34;100.00
37068;BME280;22982;42.848;25.468;2023-07-13T16:52:40;96088.31;;;30.23;100.00
37068;BME280;22982;42.848;25.468;2023-07-13T16:57:45;96100.16;;;29.96;100.00
37068;BME280;22982;42.848;25.468;2023-07-13T17:02:47;96102.81;;;29.71;100.00
37068;BME280;22982;42.848;25.468;2023-07-13T17:07:50;96120.53;;;29.61;100.00
37068;BME280;22982;42.848;25.468;2023-07-13T17:12:54;96108.06;;;29.08;100.00
37068;BME280;22982;42.848;25.468;2023-07-13T17:17:56;96111.44;;;28.96;100.00
37068;BME280;22982;42.848;25.468;2023-07-13T17:23:16;96089.09;;;28.42;100.00
37068;BME280;22982;42.848;25.468;2023-07-13T17:28:19;96113.59;;;28.48;100.00
37068;BME280;22982;42.848;25.468;2023-07-13T17:33:27;96114.81;;;28.38;100.00
37068;BME280;22982;42.848;25.468;2023-07-13T17:38:40;96104.25;;;28.30;100.00
37068;BME280;22982;42.848;25.468;2023-07-13T17:43:46;96100.66;;;27.76;100.00
37068;BME280;22982;42.848;25.468;2023-07-13T17:48:58;96111.22;;;27.64;100.00
37068;BME280;22982;42.848;25.468;2023-07-13T17:54:01;96107.66;;;27.50;100.00
37068;BME280;22982;42.848;25.468;2023-07-13T17:59:04;96103.63;;;27.26;100.00
37068;BME280;22982;42.848;25.468;2023-07-13T18:04:13;96133.16;;;27.13;100.00
37068;BME280;22982;42.848;25.468;2023-07-13T18:09:21;96136.69;;;26.79;100.00
37068;BME280;22982;42.848;25.468;2023-07-13T18:14:23;96138.38;;;26.80;100.00
37068;BME280;22982;42.848;25.468;2023-07-13T18:19:30;96144.50;;;26.67;100.00
37068;BME280;22982;42.848;25.468;2023-07-13T18:24:34;96141.47;;;26.55;100.00
37068;BME280;22982;42.848;25.468;2023-07-13T18:29:37;96148.78;;;26.40;100.00
37068;BME280;22982;42.848;25.468;2023-07-13T18:34:40;96156.03;;;26.39;100.00
37068;BME280;22982;42.848;25.468;2023-07-13T18:39:48;96163.22;;;26.10;100.00
37068;BME280;22982;42.848;25.468;2023-07-13T18:44:51;96179.88;;;25.99;100.00
37068;BME280;22982;42.848;25.468;2023-07-13T18:49:53;96176.09;;;25.57;100.00
37068;BME280;22982;42.848;25.468;2023-07-13T18:54:58;96168.72;;;25.29;100.00
37068;BME280;22982;42.848;25.468;2023-07-13T19:00:01;96212.50;;;25.45;100.00
37068;BME280;22982;42.848;25.468;2023-07-13T19:05:13;96217.59;;;25.39;100.00
37068;BME280;22982;42.848;25.468;2023-07-13T19:10:19;96218.31;;;25.03;100.00
37068;BME280;22982;42.848;25.468;2023-07-13T19:15:28;96230.97;;;24.95;100.00
37068;BME280;22982;42.848;25.468;2023-07-13T19:20:32;96228.63;;;24.77;100.00
37068;BME280;22982;42.848;25.468;2023-07-13T19:25:35;96245.44;;;24.48;100.00
37068;BME280;22982;42.848;25.468;2023-07-13T19:30:38;96225.34;;;24.29;100.00
37068;BME280;22982;42.848;25.468;2023-07-13T19:35:40;96242.78;;;24.24;100.00
37068;BME280;22982;42.848;25.468;2023-07-13T19:40:47;96245.28;;;24.26;100.00
37068;BME280;22982;42.848;25.468;2023-07-13T19:45:50;96238.19;;;24.10;100.00
37068;BME280;22982;42.848;25.468;2023-07-13T19:50:58;96251.75;;;23.85;100.00
37068;BME280;22982;42.848;25.468;2023-07-13T19:56:00;96247.69;;;23.89;100.00
37068;BME280;22982;42.848;25.468;2023-07-13T20:01:08;96251.34;;;23.97;100.00
37068;BME280;22982;42.848;25.468;2023-07-13T20:06:31;96241.94;;;23.69;100.00
37068;BME280;22982;42.848;25.468;2023-07-13T20:11:35;96235.13;;;23.59;100.00
37068;BME280;22982;42.848;25.468;2023-07-13T20:16:37;96230.50;;;23.44;100.00
37068;BME280;22982;42.848;25.468;2023-07-13T20:21:40;96218.50;;;23.32;100.00
37068;BME280;22982;42.848;25.468;2023-07-13T20:26:43;96222.00;;;23.41;100.00
37068;BME280;22982;42.848;25.468;2023-07-13T20:31:47;96221.41;;;23.14;100.00
37068;BME280;22982;42.848;25.468;2023-07-13T20:36:52;96228.22;;;23.25;100.00
37068;BME280;22982;42.848;25.468;2023-07-13T20:41:56;96211.03;;;23.19;100.00
37068;BME280;22982;42.848;25.468;2023-07-13T20:46:58;96225.53;;;23.33;100.00
37068;BME280;22982;42.848;25.468;2023-07-13T20:52:11;96206.41;;;23.05;100.00
37068;BME280;22982;42.848;25.468;2023-07-13T20:57:19;96204.72;;;23.12;100.00
37068;BME280;22982;42.848;25.468;2023-07-13T21:07:25;96205.91;;;22.93;100.00
37068;BME280;22982;42.848;25.468;2023-07-13T21:12:27;96203.75;;;22.88;100.00
37068;BME280;22982;42.848;25.468;2023-07-13T21:17:32;96187.25;;;22.77;100.00
37068;BME280;22982;42.848;25.468;2023-07-13T21:22:36;96201.31;;;22.62;100.00
37068;BME280;22982;42.848;25.468;2023-07-13T21:27:39;96167.44;;;22.38;100.00
37068;BME280;22982;42.848;25.468;2023-07-13T21:32:42;96202.69;;;22.33;100.00
37068;BME280;22982;42.848;25.468;2023-07-13T21:37:46;96192.28;;;22.14;100.00
37068;BME280;22982;42.848;25.468;2023-07-13T21:42:48;96200.28;;;21.97;100.00
37068;BME280;22982;42.848;25.468;2023-07-13T21:47:53;96203.28;;;22.11;100.00
37068;BME280;22982;42.848;25.468;2023-07-13T21:52:55;96170.41;;;21.94;100.00
37068;BME280;22982;42.848;25.468;2023-07-13T21:57:59;96165.88;;;21.70;100.00
37068;BME280;22982;42.848;25.468;2023-07-13T22:03:01;96164.53;;;21.57;100.00
37068;BME280;22982;42.848;25.468;2023-07-13T22:08:04;96173.88;;;21.62;100.00
37068;BME280;22982;42.848;25.468;2023-07-13T22:13:13;96174.44;;;21.39;100.00
37068;BME280;22982;42.848;25.468;2023-07-13T22:18:18;96174.44;;;21.31;100.00
37068;BME280;22982;42.848;25.468;2023-07-13T22:23:41;96148.69;;;21.05;100.00
37068;BME280;22982;42.848;25.468;2023-07-13T22:28:44;96141.25;;;20.82;100.00
37068;BME280;22982;42.848;25.468;2023-07-13T22:33:46;96165.59;;;20.88;100.00
37068;BME280;22982;42.848;25.468;2023-07-13T22:38:49;96140.88;;;20.77;100.00
37068;BME280;22982;42.848;25.468;2023-07-13T22:43:51;96151.91;;;20.82;100.00
37068;BME280;22982;42.848;25.468;2023-07-13T22:49:16;96133.09;;;20.84;100.00
37068;BME280;22982;42.848;25.468;2023-07-13T22:54:20;96151.97;;;20.99;100.00
37068;BME280;22982;42.848;25.468;2023-07-13T22:59:22;96131.00;;;20.96;100.00
37068;BME280;22982;42.848;25.468;2023-07-13T23:04:32;96136.47;;;20.94;100.00
37068;BME280;22982;42.848;25.468;2023-07-13T23:09:35;96135.41;;;20.79;100.00
37068;BME280;22982;42.848;25.468;2023-07-13T23:14:42;96116.53;;;20.72;100.00
37068;BME280;22982;42.848;25.468;2023-07-13T23:19:45;96124.88;;;20.69;100.00
37068;BME280;22982;42.848;25.468;2023-07-13T23:24:48;96127.66;;;20.41;100.00
37068;BME280;22982;42.848;25.468;2023-07-13T23:29:50;96122.91;;;20.27;100.00
37068;BME280;22982;42.848;25.468;2023-07-13T23:34:54;96103.47;;;20.26;100.00
37068;BME280;22982;42.848;25.468;2023-07-13T23:39:56;96112.19;;;20.37;100.00
37068;BME280;22982;42.848;25.468;2023-07-13T23:44:58;96088.50;;;20.25;100.00
37068;BME280;22982;42.848;25.468;2023-07-13T23:50:10;96101.97;;;20.24;100.00
37068;BME280;22982;42.848;25.468;2023-07-13T23:55:15;96103.56;;;20.17;100.00
